createdAt,value
2018-04-10T00:02:19.136Z,12.80
2018-04-10T00:04:47.394Z,13.40
2018-04-10T00:07:15.643Z,12.30
2018-04-10T00:09:43.916Z,12.23
2018-04-10T00:12:12.937Z,13.43
2018-04-10T00:14:41.188Z,12.67
2018-04-10T00:17:10.216Z,12.53
2018-04-10T00:19:38.469Z,12.73
2018-04-10T00:22:06.731Z,12.50
2018-04-10T00:24:35.762Z,12.30
2018-04-10T00:27:04.014Z,12.80
2018-04-10T00:29:32.276Z,13.17
2018-04-10T00:32:00.541Z,13.70
2018-04-10T00:34:29.560Z,12.07
2018-04-10T00:36:57.806Z,11.77
2018-04-10T00:39:26.838Z,12.90
2018-04-10T00:41:55.089Z,13.00
2018-04-10T00:44:24.120Z,11.53
2018-04-10T00:46:52.372Z,13.27
2018-04-10T00:49:20.631Z,14.27
2018-04-10T00:51:49.651Z,13.23
2018-04-10T00:54:17.913Z,11.93
2018-04-10T00:56:46.164Z,13.67
2018-04-10T00:59:15.182Z,12.87
2018-04-10T01:01:43.438Z,13.30
2018-04-10T01:04:12.461Z,12.30
2018-04-10T01:06:40.717Z,14.10
2018-04-10T01:09:08.980Z,13.40
2018-04-10T01:11:38.009Z,13.70
2018-04-10T01:14:06.270Z,13.57
2018-04-10T01:16:34.525Z,15.47
2018-04-10T01:19:03.568Z,17.83
2018-04-10T01:21:31.831Z,16.30
2018-04-10T01:24:00.079Z,14.80
2018-04-10T01:26:29.113Z,14.87
2018-04-10T01:28:57.367Z,12.53
2018-04-10T01:31:25.629Z,12.90
2018-04-10T01:33:53.887Z,14.10
2018-04-10T01:36:22.921Z,15.00
2018-04-10T01:38:51.173Z,16.67
2018-04-10T01:41:19.439Z,14.87
2018-04-10T01:43:48.468Z,15.07
2018-04-10T01:46:17.308Z,14.43
2018-04-10T01:48:45.567Z,16.53
2018-04-10T01:51:13.835Z,15.10
2018-04-10T01:53:42.086Z,14.77
2018-04-10T01:56:10.342Z,15.73
2018-04-10T01:58:38.604Z,14.00
2018-04-10T02:01:07.625Z,15.00
2018-04-10T02:03:35.889Z,16.10
2018-04-10T02:06:04.145Z,15.93
2018-04-10T02:08:33.172Z,15.43
2018-04-10T02:11:01.420Z,15.20
2018-04-10T02:13:29.687Z,15.40
2018-04-10T02:15:58.716Z,15.93
2018-04-10T02:18:26.978Z,16.20
2018-04-10T02:20:55.230Z,15.13
2018-04-10T02:23:24.251Z,17.73
2018-04-10T02:25:52.508Z,17.57
2018-04-10T02:28:21.537Z,15.03
2018-04-10T02:30:49.801Z,15.73
2018-04-10T02:33:18.054Z,17.30
2018-04-10T02:35:47.084Z,17.80
2018-04-10T02:38:15.335Z,18.03
2018-04-10T02:40:43.592Z,19.30
2018-04-10T02:43:12.611Z,17.03
2018-04-10T02:45:40.869Z,17.23
2018-04-10T02:48:09.127Z,16.97
2018-04-10T02:50:38.263Z,16.83
2018-04-10T02:53:06.507Z,16.77
2018-04-10T02:55:35.533Z,17.30
2018-04-10T02:58:03.792Z,15.37
2018-04-10T03:00:32.084Z,16.50
2018-04-10T03:03:00.327Z,17.20
2018-04-10T03:05:29.355Z,16.47
2018-04-10T03:07:57.608Z,16.47
2018-04-10T03:10:25.875Z,16.77
2018-04-10T03:12:54.898Z,16.83
2018-04-10T03:15:23.160Z,16.30
2018-04-10T03:17:51.423Z,18.43
2018-04-10T03:20:19.684Z,17.43
2018-04-10T03:22:48.721Z,17.30
2018-04-10T03:25:16.984Z,17.57
2018-04-10T03:27:45.244Z,16.40
2018-04-10T03:30:14.266Z,18.30
2018-04-10T03:32:42.522Z,17.20
2018-04-10T03:35:10.779Z,17.40
2018-04-10T03:37:39.804Z,18.70
2018-04-10T03:40:08.057Z,17.00
2018-04-10T03:42:37.084Z,19.73
2018-04-10T03:45:05.339Z,18.00
2018-04-10T03:47:33.599Z,17.40
2018-04-10T03:50:01.862Z,17.70
2018-04-10T03:52:30.891Z,17.10
2018-04-10T03:54:59.141Z,18.27
2018-04-10T03:57:28.166Z,19.53
2018-04-10T03:59:56.414Z,21.90
2018-04-10T04:02:24.675Z,20.53
2018-04-10T04:04:53.704Z,19.13
2018-04-10T04:07:21.959Z,19.13
2018-04-10T04:09:50.226Z,16.93
2018-04-10T04:12:19.238Z,19.00
2018-04-10T04:14:47.500Z,18.93
2018-04-10T04:17:33.417Z,18.80
2018-04-10T04:20:19.481Z,20.00
2018-04-10T04:22:48.495Z,21.17
2018-04-10T04:25:16.749Z,22.30
2018-04-10T04:27:45.759Z,20.20
2018-04-10T04:30:14.015Z,23.60
2018-04-10T04:32:43.036Z,21.60
2018-04-10T04:35:11.278Z,25.87
2018-04-10T04:37:40.300Z,25.40
2018-04-10T04:40:08.557Z,22.40
2018-04-10T04:42:37.572Z,24.03
2018-04-10T04:45:05.845Z,21.00
2018-04-10T04:47:34.088Z,25.03
2018-04-10T04:50:03.123Z,23.00
2018-04-10T04:52:31.375Z,20.80
2018-04-10T04:54:59.622Z,19.47
2018-04-10T04:57:27.884Z,24.47
2018-04-10T04:59:56.132Z,20.50
2018-04-10T05:02:24.392Z,25.00
2018-04-10T05:04:52.635Z,22.47
2018-04-10T05:07:21.660Z,21.70
2018-04-10T05:09:49.910Z,25.53
2018-04-10T05:12:18.927Z,24.30
2018-04-10T05:14:47.184Z,23.90
2018-04-10T05:17:16.208Z,22.57
2018-04-10T05:19:44.456Z,23.27
2018-04-10T05:22:13.472Z,23.77
2018-04-10T05:24:41.724Z,23.50
2018-04-10T05:27:10.748Z,21.20
2018-04-10T05:29:39.005Z,22.23
2018-04-10T05:32:07.274Z,19.70
2018-04-10T05:34:35.536Z,17.47
2018-04-10T05:37:04.583Z,22.30
2018-04-10T05:39:32.841Z,17.70
2018-04-10T05:42:01.093Z,15.33
2018-04-10T05:44:29.355Z,14.80
2018-04-10T05:46:58.384Z,14.77
2018-04-10T05:49:26.751Z,15.27
2018-04-10T05:51:55.012Z,14.03
2018-04-10T05:54:24.036Z,15.37
2018-04-10T05:56:52.288Z,15.10
2018-04-10T05:59:20.551Z,15.77
2018-04-10T06:01:49.574Z,15.97
2018-04-10T06:04:17.836Z,15.57
2018-04-10T06:06:46.092Z,16.33
2018-04-10T06:09:15.126Z,14.83
2018-04-10T06:11:43.377Z,13.83
2018-04-10T06:14:11.640Z,14.43
2018-04-10T06:16:40.671Z,15.43
2018-04-10T06:19:08.923Z,15.30
2018-04-10T06:21:37.186Z,14.80
2018-04-10T06:24:06.204Z,14.80
2018-04-10T06:26:34.472Z,15.60
2018-04-10T06:29:02.730Z,13.93
2018-04-10T06:31:31.753Z,14.77
2018-04-10T06:34:00.012Z,14.77
2018-04-10T06:36:28.265Z,15.17
2018-04-10T06:38:56.514Z,16.23
2018-04-10T06:41:24.780Z,14.20
2018-04-10T06:43:53.047Z,16.10
2018-04-10T06:46:21.316Z,15.70
2018-04-10T06:48:49.567Z,17.17
2018-04-10T06:51:17.824Z,17.97
2018-04-10T06:53:46.848Z,17.90
2018-04-10T06:56:15.125Z,17.67
2018-04-10T06:58:43.386Z,15.83
2018-04-10T07:01:11.637Z,16.23
2018-04-10T07:03:39.894Z,16.27
2018-04-10T07:06:08.140Z,16.93
2018-04-10T07:08:36.396Z,15.60
2018-04-10T07:11:04.642Z,14.50
2018-04-10T07:13:33.663Z,14.87
2018-04-10T07:16:01.913Z,15.40
2018-04-10T07:18:30.947Z,16.63
2018-04-10T07:20:59.230Z,14.63
2018-04-10T07:23:27.468Z,15.47
2018-04-10T07:25:56.496Z,13.73
2018-04-10T07:28:24.750Z,14.97
2018-04-10T07:30:53.015Z,14.07
2018-04-10T07:33:22.028Z,16.40
2018-04-10T07:35:50.377Z,13.10
2018-04-10T07:38:19.395Z,12.53
2018-04-10T07:40:47.659Z,14.97
2018-04-10T07:43:15.916Z,15.30
2018-04-10T07:45:44.945Z,15.50
2018-04-10T07:48:13.197Z,15.43
2018-04-10T07:50:42.218Z,15.47
2018-04-10T07:53:10.459Z,16.63
2018-04-10T07:55:39.483Z,14.40
2018-04-10T07:58:07.731Z,14.20
2018-04-10T08:00:36.762Z,15.80
2018-04-10T08:03:04.999Z,15.50
2018-04-10T08:05:34.032Z,15.13
2018-04-10T08:08:02.284Z,16.27
2018-04-10T08:10:30.560Z,16.07
2018-04-10T08:12:58.807Z,15.27
2018-04-10T08:15:27.831Z,15.10
2018-04-10T08:17:56.083Z,13.57
2018-04-10T08:20:25.111Z,14.50
2018-04-10T08:22:53.375Z,16.00
2018-04-10T08:25:21.621Z,16.27
2018-04-10T08:27:49.883Z,16.50
2018-04-10T08:30:18.132Z,16.60
2018-04-10T08:32:46.391Z,16.33
2018-04-10T08:35:14.645Z,15.07
2018-04-10T08:37:42.900Z,15.13
2018-04-10T08:40:11.912Z,14.37
2018-04-10T08:42:40.175Z,13.90
2018-04-10T08:45:09.194Z,13.93
2018-04-10T08:47:37.449Z,14.30
2018-04-10T08:50:06.464Z,14.07
2018-04-10T08:52:34.721Z,15.23
2018-04-10T08:55:02.970Z,13.70
2018-04-10T08:57:31.224Z,13.50
2018-04-10T08:59:59.476Z,13.33
2018-04-10T09:02:27.743Z,12.40
2018-04-10T09:04:55.988Z,13.27
2018-04-10T09:07:25.012Z,14.10
2018-04-10T09:09:53.255Z,11.53
2018-04-10T09:12:22.277Z,14.07
2018-04-10T09:14:50.536Z,13.30
2018-04-10T09:17:19.564Z,12.27
2018-04-10T09:19:47.807Z,12.03
2018-04-10T09:22:16.061Z,12.87
2018-04-10T09:24:45.114Z,12.90
2018-04-10T09:27:13.392Z,12.10
2018-04-10T09:29:41.644Z,12.83
2018-04-10T09:32:09.892Z,13.70
2018-04-10T09:34:38.916Z,14.00
2018-04-10T09:37:07.160Z,12.53
2018-04-10T09:39:36.181Z,12.57
2018-04-10T09:42:04.478Z,12.17
2018-04-10T09:44:32.695Z,12.60
2018-04-10T09:47:01.716Z,12.87
2018-04-10T09:49:29.968Z,11.90
2018-04-10T09:51:58.985Z,11.43
2018-04-10T09:54:27.239Z,12.30
2018-04-10T09:56:56.268Z,10.80
2018-04-10T09:59:24.531Z,11.00
2018-04-10T10:01:52.780Z,10.00
2018-04-10T10:04:21.821Z,9.10
2018-04-10T10:06:50.069Z,10.63
2018-04-10T10:09:18.323Z,11.07
2018-04-10T10:11:46.576Z,10.20
2018-04-10T10:14:14.823Z,9.70
2018-04-10T10:16:43.088Z,10.00
2018-04-10T10:19:11.340Z,11.20
2018-04-10T10:21:40.359Z,9.83
2018-04-10T10:24:08.604Z,9.57
2018-04-10T10:26:37.630Z,10.07
2018-04-10T10:29:05.876Z,8.70
2018-04-10T10:31:34.904Z,10.00
2018-04-10T10:34:03.157Z,9.67
2018-04-10T10:36:31.421Z,10.40
2018-04-10T10:39:00.450Z,11.50
2018-04-10T10:41:28.704Z,10.77
2018-04-10T10:43:56.953Z,11.20
2018-04-10T10:46:25.987Z,11.50
2018-04-10T10:48:54.235Z,10.90
2018-04-10T10:51:22.495Z,12.30
2018-04-10T10:53:51.514Z,14.00
2018-04-10T10:56:19.773Z,13.53
2018-04-10T10:58:48.783Z,14.07
2018-04-10T11:01:17.045Z,15.07
2018-04-10T11:03:46.061Z,14.77
2018-04-10T11:06:14.322Z,15.70
2018-04-10T11:08:42.575Z,13.60
2018-04-10T11:11:11.612Z,15.03
2018-04-10T11:13:39.848Z,15.43
2018-04-10T11:16:08.861Z,16.00
2018-04-10T11:18:37.125Z,16.13
2018-04-10T11:21:06.155Z,15.20
2018-04-10T11:23:34.420Z,16.20
2018-04-10T11:26:02.667Z,16.70
2018-04-10T11:28:31.691Z,17.13
2018-04-10T11:30:59.950Z,20.13
2018-04-10T11:33:28.200Z,17.73
2018-04-10T11:35:57.222Z,18.60
2018-04-10T11:38:25.487Z,16.60
2018-04-10T11:40:54.500Z,17.27
2018-04-10T11:43:22.764Z,18.60
2018-04-10T11:45:51.012Z,17.40
2018-04-10T11:48:19.274Z,18.70
2018-04-10T11:50:47.519Z,17.87
2018-04-10T11:53:15.775Z,18.90
2018-04-10T11:55:44.028Z,17.70
2018-04-10T11:58:13.044Z,17.63
2018-04-10T12:00:41.289Z,16.47
2018-04-10T12:03:10.312Z,18.10
2018-04-10T12:05:38.569Z,16.53
2018-04-10T12:08:07.616Z,17.60
2018-04-10T12:10:35.844Z,16.83
2018-04-10T12:13:04.100Z,18.27
2018-04-10T12:15:33.115Z,20.07
2018-04-10T12:18:01.377Z,17.10
2018-04-10T12:20:30.392Z,18.17
2018-04-10T12:22:58.640Z,15.73
2018-04-10T12:25:27.659Z,18.27
2018-04-10T12:27:55.912Z,17.70
2018-04-10T12:30:24.933Z,19.13
2018-04-10T12:32:53.179Z,17.70
2018-04-10T12:35:22.207Z,18.30
2018-04-10T12:37:50.460Z,18.20
2018-04-10T12:40:18.711Z,18.37
2018-04-10T12:42:46.968Z,18.63
2018-04-10T12:45:15.219Z,18.17
2018-04-10T12:47:43.472Z,17.30
2018-04-10T12:50:11.730Z,18.00
2018-04-10T12:52:40.764Z,17.60
2018-04-10T12:55:09.000Z,16.80
2018-04-10T12:57:38.019Z,16.43
2018-04-10T13:00:06.283Z,15.33
2018-04-10T13:02:34.528Z,16.10
2018-04-10T13:05:03.553Z,17.43
2018-04-10T13:07:31.843Z,20.63
2018-04-10T13:10:00.823Z,19.13
2018-04-10T13:12:29.073Z,18.50
2018-04-10T13:14:58.097Z,20.00
2018-04-10T13:17:26.352Z,18.70
2018-04-10T13:19:55.391Z,19.40
2018-04-10T13:22:23.634Z,17.83
2018-04-10T13:24:51.884Z,20.27
2018-04-10T13:27:20.910Z,18.10
2018-04-10T13:29:49.155Z,18.50
2018-04-10T13:32:18.179Z,17.43
2018-04-10T13:34:46.435Z,18.80
2018-04-10T13:37:14.691Z,19.33
2018-04-10T13:39:43.704Z,18.63
2018-04-10T13:42:11.963Z,18.00
2018-04-10T13:44:40.979Z,20.63
2018-04-10T13:47:09.238Z,21.63
2018-04-10T13:49:38.248Z,20.80
2018-04-10T13:52:06.514Z,22.13
2018-04-10T13:54:35.524Z,21.70
2018-04-10T13:57:03.779Z,20.03
2018-04-10T13:59:32.849Z,21.53
2018-04-10T14:02:01.069Z,21.60
2018-04-10T14:04:29.320Z,21.20
2018-04-10T14:06:58.342Z,20.80
2018-04-10T14:09:26.592Z,23.40
2018-04-10T14:11:55.604Z,21.40
2018-04-10T14:14:23.867Z,22.57
2018-04-10T14:16:52.888Z,20.33
2018-04-10T14:19:21.136Z,22.40
2018-04-10T14:21:49.412Z,23.03
2018-04-10T14:24:17.673Z,20.50
2018-04-10T14:26:46.685Z,22.73
2018-04-10T14:29:14.939Z,22.80
2018-04-10T14:31:43.963Z,22.13
2018-04-10T14:34:12.222Z,22.63
2018-04-10T14:36:41.228Z,22.53
2018-04-10T14:39:09.485Z,22.50
2018-04-10T14:41:38.500Z,21.33
2018-04-10T14:44:06.759Z,23.40
2018-04-10T14:46:35.016Z,22.20
2018-04-10T14:49:04.047Z,19.57
2018-04-10T14:51:32.299Z,20.87
2018-04-10T14:54:01.317Z,19.90
2018-04-10T14:56:29.564Z,19.37
2018-04-10T14:58:58.591Z,21.43
2018-04-10T15:01:26.841Z,22.00
2018-04-10T15:03:55.862Z,21.90
2018-04-10T15:06:24.117Z,22.70
2018-04-10T15:08:52.416Z,20.10
2018-04-10T15:11:21.390Z,20.90
2018-04-10T15:13:49.647Z,23.53
2018-04-10T15:16:18.659Z,22.70
2018-04-10T15:18:46.919Z,21.23
2018-04-10T15:21:15.171Z,21.77
2018-04-10T15:23:43.453Z,23.80
2018-04-10T15:26:11.714Z,22.80
2018-04-10T15:28:39.994Z,21.43
2018-04-10T15:31:08.235Z,21.07
2018-04-10T15:33:36.485Z,21.07
2018-04-10T15:36:04.740Z,20.20
2018-04-10T15:38:33.751Z,22.53
2018-04-10T15:41:02.018Z,21.10
2018-04-10T15:43:31.023Z,22.23
2018-04-10T15:45:59.281Z,20.07
2018-04-10T15:48:28.292Z,20.67
2018-04-10T15:50:56.542Z,22.63
2018-04-10T15:53:25.565Z,21.50
2018-04-10T15:55:53.823Z,20.83
2018-04-10T15:58:22.837Z,21.10
2018-04-10T16:00:51.108Z,21.83
2018-04-10T16:03:19.356Z,21.93
2018-04-10T16:05:47.611Z,17.97
2018-04-10T16:08:15.863Z,17.73
2018-04-10T16:10:44.126Z,17.17
2018-04-10T16:13:12.367Z,17.10
2018-04-10T16:15:40.630Z,18.37
2018-04-10T16:18:09.652Z,16.87
2018-04-10T16:20:37.899Z,17.43
2018-04-10T16:23:06.157Z,17.17
2018-04-10T16:25:34.406Z,17.00
2018-04-10T16:28:02.662Z,17.93
2018-04-10T16:30:30.914Z,16.50
2018-04-10T16:32:59.940Z,18.47
2018-04-10T16:35:28.187Z,17.03
2018-04-10T16:37:57.356Z,17.73
2018-04-10T16:40:25.603Z,17.93
2018-04-10T16:42:53.860Z,18.73
2018-04-10T16:45:22.110Z,18.40
2018-04-10T16:47:51.139Z,17.30
2018-04-10T16:50:19.388Z,19.03
2018-04-10T16:52:47.659Z,130.60
2018-04-10T16:55:15.910Z,20.63
2018-04-10T16:57:45.173Z,19.20
2018-04-10T17:00:13.512Z,18.30
2018-04-10T17:02:41.796Z,20.73
2018-04-10T17:05:10.055Z,32.70
2018-04-10T17:07:39.063Z,18.63
2018-04-10T17:10:07.319Z,18.30
2018-04-10T17:12:36.382Z,16.50
2018-04-10T17:15:04.612Z,15.00
2018-04-10T17:17:32.853Z,14.90
2018-04-10T17:20:01.875Z,16.53
2018-04-10T17:22:30.127Z,15.33
2018-04-10T17:24:59.195Z,15.93
2018-04-10T17:27:27.415Z,16.90
2018-04-10T17:29:55.684Z,14.73
2018-04-10T17:32:23.970Z,12.63
2018-04-10T17:34:52.220Z,11.90
2018-04-10T17:37:21.239Z,10.80
2018-04-10T17:39:49.492Z,8.20
2018-04-10T17:42:18.500Z,7.47
2018-04-10T17:44:46.752Z,7.70
2018-04-10T17:47:15.011Z,6.70
2018-04-10T17:49:43.267Z,6.90
2018-04-10T17:52:11.514Z,6.00
2018-04-10T17:54:39.782Z,6.50
2018-04-10T17:57:08.029Z,6.40
2018-04-10T17:59:36.276Z,6.73
2018-04-10T18:02:04.526Z,6.50
2018-04-10T18:04:32.789Z,6.13
2018-04-10T18:07:01.039Z,5.20
2018-04-10T18:09:30.049Z,5.03
2018-04-10T18:11:58.306Z,5.30
2018-04-10T18:14:27.327Z,6.30
2018-04-10T18:16:55.575Z,4.63
2018-04-10T18:19:23.816Z,5.13
2018-04-10T18:21:52.080Z,5.33
2018-04-10T18:24:20.320Z,5.50
2018-04-10T18:26:48.571Z,5.27
2018-04-10T18:29:16.817Z,4.63
2018-04-10T18:31:45.068Z,4.73
2018-04-10T18:34:13.315Z,5.63
2018-04-10T18:36:42.333Z,5.50
2018-04-10T18:39:10.576Z,6.33
2018-04-10T18:41:39.688Z,5.80
2018-04-10T18:44:07.840Z,2.43
2018-04-10T18:46:36.860Z,3.93
2018-04-10T18:49:05.104Z,3.87
2018-04-10T18:51:33.352Z,3.00
2018-04-10T18:54:01.601Z,2.73
2018-04-10T18:56:29.859Z,3.27
2018-04-10T18:58:58.096Z,3.13
2018-04-10T19:01:26.364Z,3.33
2018-04-10T19:03:54.679Z,4.50
2018-04-10T19:06:22.885Z,3.50
2018-04-10T19:08:51.137Z,4.23
2018-04-10T19:11:19.396Z,5.07
2018-04-10T19:13:48.421Z,4.17
2018-04-10T19:16:17.389Z,6.50
2018-04-10T19:18:45.653Z,6.77
2018-04-10T19:21:13.988Z,6.73
2018-04-10T19:23:42.450Z,7.10
2018-04-10T19:26:10.798Z,4.70
2018-04-10T19:28:39.404Z,7.50
2018-04-10T19:31:07.792Z,7.07
2018-04-10T19:33:36.175Z,7.47
2018-04-10T19:36:04.606Z,7.93
2018-04-10T19:38:33.065Z,8.20
2018-04-10T19:41:02.545Z,8.73
2018-04-10T19:43:30.811Z,9.23
2018-04-10T19:45:59.063Z,9.60
2018-04-10T19:48:27.349Z,6.97
2018-04-10T19:50:55.600Z,8.20
2018-04-10T19:53:24.688Z,6.73
2018-04-10T19:55:53.703Z,7.90
2018-04-10T19:58:21.972Z,8.00
2018-04-10T20:00:50.233Z,5.57
2018-04-10T20:03:19.434Z,7.33
2018-04-10T20:05:48.456Z,7.60
2018-04-10T20:08:16.712Z,5.97
2018-04-10T20:10:45.013Z,4.30
2018-04-10T20:13:13.396Z,5.50
2018-04-10T20:15:41.678Z,4.20
2018-04-10T20:18:09.888Z,4.10
2018-04-10T20:20:38.156Z,3.33
2018-04-10T20:23:06.399Z,3.03
2018-04-10T20:25:34.652Z,4.90
2018-04-10T20:28:02.901Z,4.33
2018-04-10T20:30:31.912Z,3.17
2018-04-10T20:33:00.153Z,4.90
2018-04-10T20:35:28.418Z,4.10
2018-04-10T20:37:56.668Z,4.10
2018-04-10T20:40:24.913Z,3.20
2018-04-10T20:42:53.911Z,3.90
2018-04-10T20:45:22.166Z,4.10
2018-04-10T20:47:51.182Z,4.30
2018-04-10T20:50:19.435Z,3.80
2018-04-10T20:52:48.443Z,3.80
2018-04-10T20:55:16.697Z,4.50
2018-04-10T20:57:45.712Z,3.40
2018-04-10T21:00:14.729Z,4.30
2018-04-10T21:02:42.973Z,3.60
2018-04-10T21:05:11.983Z,3.17
2018-04-10T21:07:40.310Z,4.40
2018-04-10T21:10:08.555Z,3.73
2018-04-10T21:12:36.796Z,4.00
2018-04-10T21:15:05.809Z,4.77
2018-04-10T21:17:34.048Z,4.00
2018-04-10T21:20:02.299Z,4.10
2018-04-10T21:22:30.535Z,4.27
2018-04-10T21:24:58.791Z,3.87
2018-04-10T21:27:27.797Z,5.53
2018-04-10T21:29:56.174Z,3.63
2018-04-10T21:32:25.320Z,4.17
2018-04-10T21:34:53.571Z,4.37
2018-04-10T21:37:21.815Z,4.43
2018-04-10T21:39:50.131Z,5.07
2018-04-10T21:42:18.408Z,4.60
2018-04-10T21:44:46.655Z,5.47
2018-04-10T21:47:14.895Z,5.90
2018-04-10T21:49:43.251Z,5.37
2018-04-10T21:52:11.551Z,5.10
2018-04-10T21:54:39.875Z,6.23
2018-04-10T21:57:08.167Z,5.23
2018-04-10T21:59:36.404Z,5.70
2018-04-10T22:02:04.655Z,5.30
2018-04-10T22:04:32.883Z,5.77
2018-04-10T22:07:01.132Z,5.40
2018-04-10T22:09:29.368Z,5.90
2018-04-10T22:11:57.626Z,5.63
2018-04-10T22:14:25.859Z,5.90
2018-04-10T22:16:54.118Z,5.50
2018-04-10T22:19:23.120Z,4.77
2018-04-10T22:21:51.366Z,5.03
2018-04-10T22:24:19.619Z,4.37
2018-04-10T22:26:47.865Z,4.83
2018-04-10T22:29:16.105Z,5.10
2018-04-10T22:31:45.139Z,5.70
2018-04-10T22:34:13.332Z,7.57
2018-04-10T22:36:41.573Z,7.30
2018-04-10T22:39:09.831Z,7.40
2018-04-10T22:41:38.075Z,6.83
2018-04-10T22:44:07.101Z,6.83
2018-04-10T22:46:35.341Z,7.13
2018-04-10T22:49:04.358Z,6.70
2018-04-10T22:51:32.619Z,7.60
2018-04-10T22:54:01.679Z,7.97
2018-04-10T22:56:29.932Z,6.77
2018-04-10T22:58:58.190Z,7.73
2018-04-10T23:01:26.500Z,8.70
2018-04-10T23:03:54.761Z,9.10
2018-04-10T23:06:23.032Z,8.30
2018-04-10T23:08:51.280Z,9.37
2018-04-10T23:11:20.289Z,9.10
2018-04-10T23:13:48.550Z,8.00
2018-04-10T23:16:17.575Z,7.67
2018-04-10T23:18:45.827Z,7.20
2018-04-10T23:21:14.842Z,7.80
2018-04-10T23:23:43.080Z,7.80
2018-04-10T23:26:12.106Z,8.07
2018-04-10T23:28:40.351Z,8.27
2018-04-10T23:31:08.603Z,8.77
2018-04-10T23:33:36.843Z,8.60
2018-04-10T23:36:05.087Z,9.03
2018-04-10T23:38:34.101Z,8.10
2018-04-10T23:41:02.352Z,8.13
2018-04-10T23:43:30.595Z,7.13
2018-04-10T23:45:58.835Z,8.33
2018-04-10T23:48:27.085Z,8.40
2018-04-10T23:50:56.101Z,8.23
2018-04-10T23:53:24.357Z,8.30
2018-04-10T23:55:52.603Z,9.57
2018-04-10T23:58:20.852Z,11.47
